sensor_id;sensor_type;location;lat;lon;timestamp;P1;durP1;ratioP1;P2;durP2;ratioP2
75071;SDS011;63651;55.728;38.022;2022-12-01T00:04:40;17.60;;;12.35;;
75071;SDS011;63651;55.728;38.022;2022-12-01T00:09:41;16.05;;;12.30;;
75071;SDS011;63651;55.728;38.022;2022-12-01T00:15:01;16.30;;;11.30;;
75071;SDS011;63651;55.728;38.022;2022-12-01T00:20:02;15.82;;;11.32;;
75071;SDS011;63651;55.728;38.022;2022-12-01T00:25:04;15.15;;;12.00;;
75071;SDS011;63651;55.728;38.022;2022-12-01T00:30:06;16.00;;;10.90;;
75071;SDS011;63651;55.728;38.022;2022-12-01T00:35:09;13.90;;;10.20;;
75071;SDS011;63651;55.728;38.022;2022-12-01T00:40:10;18.50;;;12.75;;
75071;SDS011;63651;55.728;38.022;2022-12-01T00:45:12;19.20;;;14.07;;
75071;SDS011;63651;55.728;38.022;2022-12-01T00:50:13;19.52;;;12.85;;
75071;SDS011;63651;55.728;38.022;2022-12-01T00:55:14;16.38;;;12.80;;
75071;SDS011;63651;55.728;38.022;2022-12-01T01:00:15;18.65;;;11.98;;
75071;SDS011;63651;55.728;38.022;2022-12-01T01:05:16;16.73;;;10.45;;
75071;SDS011;63651;55.728;38.022;2022-12-01T01:10:18;16.77;;;10.90;;
75071;SDS011;63651;55.728;38.022;2022-12-01T01:15:19;15.13;;;10.27;;
75071;SDS011;63651;55.728;38.022;2022-12-01T01:20:21;17.17;;;10.82;;
75071;SDS011;63651;55.728;38.022;2022-12-01T01:25:22;15.15;;;10.52;;
75071;SDS011;63651;55.728;38.022;2022-12-01T01:30:23;16.67;;;10.80;;
75071;SDS011;63651;55.728;38.022;2022-12-01T01:35:24;13.43;;;10.15;;
75071;SDS011;63651;55.728;38.022;2022-12-01T01:40:25;16.45;;;9.82;;
75071;SDS011;63651;55.728;38.022;2022-12-01T01:45:29;14.88;;;10.23;;
75071;SDS011;63651;55.728;38.022;2022-12-01T01:50:30;14.77;;;9.63;;
75071;SDS011;63651;55.728;38.022;2022-12-01T01:55:32;16.50;;;9.75;;
75071;SDS011;63651;55.728;38.022;2022-12-01T02:00:34;15.10;;;9.80;;
75071;SDS011;63651;55.728;38.022;2022-12-01T02:05:38;18.10;;;9.93;;
75071;SDS011;63651;55.728;38.022;2022-12-01T02:16:08;15.98;;;10.02;;
75071;SDS011;63651;55.728;38.022;2022-12-01T02:37:09;17.15;;;9.95;;
75071;SDS011;63651;55.728;38.022;2022-12-01T02:42:15;15.60;;;10.73;;
75071;SDS011;63651;55.728;38.022;2022-12-01T02:47:39;15.63;;;9.70;;
75071;SDS011;63651;55.728;38.022;2022-12-01T02:52:43;18.25;;;11.02;;
75071;SDS011;63651;55.728;38.022;2022-12-01T02:57:45;20.67;;;14.02;;
75071;SDS011;63651;55.728;38.022;2022-12-01T03:24:10;18.70;;;12.35;;
75071;SDS011;63651;55.728;38.022;2022-12-01T03:29:16;22.67;;;12.45;;
75071;SDS011;63651;55.728;38.022;2022-12-01T03:34:23;19.52;;;12.55;;
75071;SDS011;63651;55.728;38.022;2022-12-01T03:39:59;22.63;;;12.63;;
75071;SDS011;63651;55.728;38.022;2022-12-01T03:45:11;21.23;;;12.45;;
75071;SDS011;63651;55.728;38.022;2022-12-01T03:50:17;20.45;;;13.52;;
75071;SDS011;63651;55.728;38.022;2022-12-01T04:00:24;19.05;;;11.93;;
75071;SDS011;63651;55.728;38.022;2022-12-01T04:05:26;19.90;;;11.32;;
75071;SDS011;63651;55.728;38.022;2022-12-01T04:10:27;21.92;;;10.70;;
75071;SDS011;63651;55.728;38.022;2022-12-01T04:15:29;19.60;;;10.80;;
75071;SDS011;63651;55.728;38.022;2022-12-01T04:20:30;19.00;;;11.18;;
75071;SDS011;63651;55.728;38.022;2022-12-01T04:25:31;18.90;;;10.95;;
75071;SDS011;63651;55.728;38.022;2022-12-01T04:30:32;20.58;;;11.13;;
75071;SDS011;63651;55.728;38.022;2022-12-01T04:35:33;24.63;;;12.48;;
75071;SDS011;63651;55.728;38.022;2022-12-01T04:40:34;26.27;;;11.60;;
75071;SDS011;63651;55.728;38.022;2022-12-01T04:45:35;26.58;;;13.35;;
75071;SDS011;63651;55.728;38.022;2022-12-01T04:50:39;21.70;;;11.77;;
75071;SDS011;63651;55.728;38.022;2022-12-01T04:55:40;20.85;;;11.63;;
75071;SDS011;63651;55.728;38.022;2022-12-01T05:00:42;27.33;;;12.65;;
75071;SDS011;63651;55.728;38.022;2022-12-01T05:05:43;26.95;;;17.02;;
75071;SDS011;63651;55.728;38.022;2022-12-01T05:10:44;25.52;;;14.98;;
75071;SDS011;63651;55.728;38.022;2022-12-01T05:15:45;22.58;;;13.25;;
75071;SDS011;63651;55.728;38.022;2022-12-01T05:20:46;24.15;;;13.00;;
75071;SDS011;63651;55.728;38.022;2022-12-01T05:25:59;22.33;;;12.38;;
75071;SDS011;63651;55.728;38.022;2022-12-01T05:31:02;22.67;;;12.55;;
75071;SDS011;63651;55.728;38.022;2022-12-01T05:36:03;23.23;;;12.00;;
75071;SDS011;63651;55.728;38.022;2022-12-01T05:41:04;22.30;;;12.52;;
75071;SDS011;63651;55.728;38.022;2022-12-01T05:46:05;25.85;;;15.15;;
75071;SDS011;63651;55.728;38.022;2022-12-01T05:51:07;24.73;;;14.15;;
75071;SDS011;63651;55.728;38.022;2022-12-01T05:56:09;22.52;;;13.43;;
75071;SDS011;63651;55.728;38.022;2022-12-01T06:01:10;20.95;;;12.68;;
75071;SDS011;63651;55.728;38.022;2022-12-01T06:06:11;20.05;;;12.55;;
75071;SDS011;63651;55.728;38.022;2022-12-01T06:11:12;21.40;;;13.10;;
75071;SDS011;63651;55.728;38.022;2022-12-01T06:16:13;22.10;;;14.38;;
75071;SDS011;63651;55.728;38.022;2022-12-01T06:21:15;25.08;;;13.50;;
75071;SDS011;63651;55.728;38.022;2022-12-01T06:26:16;22.70;;;14.07;;
75071;SDS011;63651;55.728;38.022;2022-12-01T06:31:17;26.85;;;13.98;;
75071;SDS011;63651;55.728;38.022;2022-12-01T06:36:18;24.13;;;14.65;;
75071;SDS011;63651;55.728;38.022;2022-12-01T06:41:19;23.33;;;13.73;;
75071;SDS011;63651;55.728;38.022;2022-12-01T06:46:20;23.33;;;13.43;;
75071;SDS011;63651;55.728;38.022;2022-12-01T06:51:21;22.23;;;13.98;;
75071;SDS011;63651;55.728;38.022;2022-12-01T06:56:22;24.73;;;14.85;;
75071;SDS011;63651;55.728;38.022;2022-12-01T07:01:23;25.15;;;14.10;;
75071;SDS011;63651;55.728;38.022;2022-12-01T07:06:24;22.98;;;14.55;;
75071;SDS011;63651;55.728;38.022;2022-12-01T07:11:26;24.75;;;15.18;;
75071;SDS011;63651;55.728;38.022;2022-12-01T07:16:27;26.10;;;16.30;;
75071;SDS011;63651;55.728;38.022;2022-12-01T07:21:28;26.40;;;16.10;;
75071;SDS011;63651;55.728;38.022;2022-12-01T07:26:29;26.40;;;15.70;;
75071;SDS011;63651;55.728;38.022;2022-12-01T07:31:30;29.83;;;16.58;;
75071;SDS011;63651;55.728;38.022;2022-12-01T07:36:31;28.33;;;17.27;;
75071;SDS011;63651;55.728;38.022;2022-12-01T07:41:33;26.77;;;16.52;;
75071;SDS011;63651;55.728;38.022;2022-12-01T07:46:35;29.42;;;18.65;;
75071;SDS011;63651;55.728;38.022;2022-12-01T07:51:36;30.73;;;18.50;;
75071;SDS011;63651;55.728;38.022;2022-12-01T07:56:37;28.38;;;17.90;;
75071;SDS011;63651;55.728;38.022;2022-12-01T08:01:38;24.95;;;16.15;;
75071;SDS011;63651;55.728;38.022;2022-12-01T08:06:39;23.58;;;15.50;;
75071;SDS011;63651;55.728;38.022;2022-12-01T08:11:41;26.60;;;16.42;;
75071;SDS011;63651;55.728;38.022;2022-12-01T08:16:42;29.73;;;16.00;;
75071;SDS011;63651;55.728;38.022;2022-12-01T08:21:43;26.25;;;15.70;;
75071;SDS011;63651;55.728;38.022;2022-12-01T08:26:44;29.63;;;16.08;;
75071;SDS011;63651;55.728;38.022;2022-12-01T08:31:45;25.30;;;16.02;;
75071;SDS011;63651;55.728;38.022;2022-12-01T08:36:46;24.67;;;16.38;;
75071;SDS011;63651;55.728;38.022;2022-12-01T08:41:47;27.98;;;16.75;;
75071;SDS011;63651;55.728;38.022;2022-12-01T08:46:48;27.02;;;16.15;;
75071;SDS011;63651;55.728;38.022;2022-12-01T08:51:49;25.42;;;15.57;;
75071;SDS011;63651;55.728;38.022;2022-12-01T08:56:50;27.95;;;16.45;;
75071;SDS011;63651;55.728;38.022;2022-12-01T09:01:51;25.98;;;15.23;;
75071;SDS011;63651;55.728;38.022;2022-12-01T09:06:53;26.85;;;16.23;;
75071;SDS011;63651;55.728;38.022;2022-12-01T09:11:56;27.55;;;16.15;;
75071;SDS011;63651;55.728;38.022;2022-12-01T09:16:57;24.23;;;16.08;;
75071;SDS011;63651;55.728;38.022;2022-12-01T09:21:58;26.88;;;15.23;;
75071;SDS011;63651;55.728;38.022;2022-12-01T09:26:59;25.35;;;13.70;;
75071;SDS011;63651;55.728;38.022;2022-12-01T09:32:02;23.10;;;12.50;;
75071;SDS011;63651;55.728;38.022;2022-12-01T09:37:03;23.55;;;13.18;;
75071;SDS011;63651;55.728;38.022;2022-12-01T09:42:07;20.45;;;12.32;;
75071;SDS011;63651;55.728;38.022;2022-12-01T09:47:22;21.42;;;14.15;;
75071;SDS011;63651;55.728;38.022;2022-12-01T09:52:31;26.63;;;14.13;;
75071;SDS011;63651;55.728;38.022;2022-12-01T09:57:38;24.85;;;13.93;;
75071;SDS011;63651;55.728;38.022;2022-12-01T10:08:01;22.45;;;14.20;;
75071;SDS011;63651;55.728;38.022;2022-12-01T10:13:10;23.30;;;14.65;;
75071;SDS011;63651;55.728;38.022;2022-12-01T10:23:49;27.38;;;18.00;;
75071;SDS011;63651;55.728;38.022;2022-12-01T10:29:11;26.55;;;17.73;;
75071;SDS011;63651;55.728;38.022;2022-12-01T10:34:32;26.20;;;17.65;;
75071;SDS011;63651;55.728;38.022;2022-12-01T10:39:37;26.60;;;17.08;;
75071;SDS011;63651;55.728;38.022;2022-12-01T10:44:41;30.13;;;18.33;;
75071;SDS011;63651;55.728;38.022;2022-12-01T10:49:43;32.17;;;21.95;;
75071;SDS011;63651;55.728;38.022;2022-12-01T10:54:45;29.42;;;18.92;;
75071;SDS011;63651;55.728;38.022;2022-12-01T10:59:59;24.80;;;16.95;;
75071;SDS011;63651;55.728;38.022;2022-12-01T11:05:06;26.98;;;17.80;;
75071;SDS011;63651;55.728;38.022;2022-12-01T11:10:30;26.83;;;17.33;;
75071;SDS011;63651;55.728;38.022;2022-12-01T11:15:37;28.33;;;16.50;;
75071;SDS011;63651;55.728;38.022;2022-12-01T11:21:35;25.10;;;15.35;;
75071;SDS011;63651;55.728;38.022;2022-12-01T11:36:47;25.88;;;15.73;;
75071;SDS011;63651;55.728;38.022;2022-12-01T11:41:57;22.95;;;15.52;;
75071;SDS011;63651;55.728;38.022;2022-12-01T11:47:11;20.10;;;13.20;;
75071;SDS011;63651;55.728;38.022;2022-12-01T11:52:29;20.92;;;13.27;;
75071;SDS011;63651;55.728;38.022;2022-12-01T12:02:39;20.85;;;13.15;;
75071;SDS011;63651;55.728;38.022;2022-12-01T12:24:08;16.08;;;11.82;;
75071;SDS011;63651;55.728;38.022;2022-12-01T12:35:16;21.58;;;13.43;;
75071;SDS011;63651;55.728;38.022;2022-12-01T12:52:03;16.38;;;9.77;;
75071;SDS011;63651;55.728;38.022;2022-12-01T12:57:20;16.35;;;10.30;;
75071;SDS011;63651;55.728;38.022;2022-12-01T13:07:53;18.25;;;11.40;;
75071;SDS011;63651;55.728;38.022;2022-12-01T13:18:49;16.83;;;10.45;;
75071;SDS011;63651;55.728;38.022;2022-12-01T13:24:04;15.57;;;9.52;;
75071;SDS011;63651;55.728;38.022;2022-12-01T13:29:06;15.23;;;9.77;;
75071;SDS011;63651;55.728;38.022;2022-12-01T13:34:26;15.35;;;8.90;;
75071;SDS011;63651;55.728;38.022;2022-12-01T13:39:39;15.68;;;9.77;;
75071;SDS011;63651;55.728;38.022;2022-12-01T13:44:42;15.88;;;9.52;;
75071;SDS011;63651;55.728;38.022;2022-12-01T13:49:48;25.30;;;12.45;;
75071;SDS011;63651;55.728;38.022;2022-12-01T13:55:19;19.65;;;11.38;;
75071;SDS011;63651;55.728;38.022;2022-12-01T14:00:29;16.60;;;9.30;;
75071;SDS011;63651;55.728;38.022;2022-12-01T14:10:50;15.65;;;9.45;;
75071;SDS011;63651;55.728;38.022;2022-12-01T14:16:01;15.77;;;8.85;;
75071;SDS011;63651;55.728;38.022;2022-12-01T14:21:07;14.13;;;9.13;;
75071;SDS011;63651;55.728;38.022;2022-12-01T14:31:15;16.52;;;10.55;;
75071;SDS011;63651;55.728;38.022;2022-12-01T14:41:24;14.60;;;9.27;;
75071;SDS011;63651;55.728;38.022;2022-12-01T14:46:27;15.95;;;10.23;;
75071;SDS011;63651;55.728;38.022;2022-12-01T14:51:43;14.00;;;9.63;;
75071;SDS011;63651;55.728;38.022;2022-12-01T14:56:49;14.88;;;8.85;;
75071;SDS011;63651;55.728;38.022;2022-12-01T15:06:56;16.63;;;10.20;;
75071;SDS011;63651;55.728;38.022;2022-12-01T15:11:59;16.35;;;10.15;;
75071;SDS011;63651;55.728;38.022;2022-12-01T15:17:03;16.08;;;9.38;;
75071;SDS011;63651;55.728;38.022;2022-12-01T15:22:12;14.80;;;9.40;;
75071;SDS011;63651;55.728;38.022;2022-12-01T15:27:28;14.25;;;8.27;;
75071;SDS011;63651;55.728;38.022;2022-12-01T15:32:31;13.30;;;8.70;;
75071;SDS011;63651;55.728;38.022;2022-12-01T15:37:41;16.25;;;8.80;;
75071;SDS011;63651;55.728;38.022;2022-12-01T15:42:43;17.25;;;8.50;;
75071;SDS011;63651;55.728;38.022;2022-12-01T15:47:59;14.43;;;9.88;;
75071;SDS011;63651;55.728;38.022;2022-12-01T15:53:01;14.02;;;8.68;;
75071;SDS011;63651;55.728;38.022;2022-12-01T15:58:20;15.00;;;8.02;;
75071;SDS011;63651;55.728;38.022;2022-12-01T16:03:24;11.77;;;7.95;;
75071;SDS011;63651;55.728;38.022;2022-12-01T16:08:26;13.18;;;7.60;;
75071;SDS011;63651;55.728;38.022;2022-12-01T16:13:34;14.95;;;8.32;;
75071;SDS011;63651;55.728;38.022;2022-12-01T16:18:43;12.05;;;7.70;;
75071;SDS011;63651;55.728;38.022;2022-12-01T16:24:01;12.07;;;7.85;;
75071;SDS011;63651;55.728;38.022;2022-12-01T16:29:12;12.10;;;7.43;;
75071;SDS011;63651;55.728;38.022;2022-12-01T16:34:19;14.02;;;8.25;;
75071;SDS011;63651;55.728;38.022;2022-12-01T16:39:22;13.50;;;8.20;;
75071;SDS011;63651;55.728;38.022;2022-12-01T16:44:23;13.55;;;8.13;;
75071;SDS011;63651;55.728;38.022;2022-12-01T16:49:24;13.13;;;8.35;;
75071;SDS011;63651;55.728;38.022;2022-12-01T16:54:25;13.15;;;8.15;;
75071;SDS011;63651;55.728;38.022;2022-12-01T16:59:27;13.65;;;7.40;;
75071;SDS011;63651;55.728;38.022;2022-12-01T17:04:29;14.63;;;8.30;;
75071;SDS011;63651;55.728;38.022;2022-12-01T17:09:30;16.23;;;9.95;;
75071;SDS011;63651;55.728;38.022;2022-12-01T17:14:31;15.13;;;9.60;;
75071;SDS011;63651;55.728;38.022;2022-12-01T17:19:32;15.02;;;9.57;;
75071;SDS011;63651;55.728;38.022;2022-12-01T17:24:33;14.40;;;9.38;;
75071;SDS011;63651;55.728;38.022;2022-12-01T17:29:34;16.40;;;9.90;;
75071;SDS011;63651;55.728;38.022;2022-12-01T17:34:35;20.40;;;11.95;;
75071;SDS011;63651;55.728;38.022;2022-12-01T17:39:36;16.58;;;10.82;;
75071;SDS011;63651;55.728;38.022;2022-12-01T17:44:37;16.80;;;9.90;;
75071;SDS011;63651;55.728;38.022;2022-12-01T17:49:38;15.60;;;9.82;;
75071;SDS011;63651;55.728;38.022;2022-12-01T17:54:39;16.02;;;9.82;;
75071;SDS011;63651;55.728;38.022;2022-12-01T17:59:40;18.83;;;9.32;;
75071;SDS011;63651;55.728;38.022;2022-12-01T18:04:41;15.73;;;9.43;;
75071;SDS011;63651;55.728;38.022;2022-12-01T18:09:42;14.90;;;9.63;;
75071;SDS011;63651;55.728;38.022;2022-12-01T18:14:43;15.48;;;9.25;;
75071;SDS011;63651;55.728;38.022;2022-12-01T18:19:44;16.00;;;9.90;;
75071;SDS011;63651;55.728;38.022;2022-12-01T18:24:45;15.20;;;10.07;;
75071;SDS011;63651;55.728;38.022;2022-12-01T18:29:46;16.42;;;9.77;;
75071;SDS011;63651;55.728;38.022;2022-12-01T18:34:47;15.57;;;10.07;;
75071;SDS011;63651;55.728;38.022;2022-12-01T18:39:48;16.40;;;9.88;;
75071;SDS011;63651;55.728;38.022;2022-12-01T18:44:49;16.38;;;10.10;;
75071;SDS011;63651;55.728;38.022;2022-12-01T18:49:50;15.20;;;9.07;;
75071;SDS011;63651;55.728;38.022;2022-12-01T18:54:52;17.50;;;9.48;;
75071;SDS011;63651;55.728;38.022;2022-12-01T18:59:53;17.92;;;10.25;;
75071;SDS011;63651;55.728;38.022;2022-12-01T19:04:55;17.08;;;10.60;;
75071;SDS011;63651;55.728;38.022;2022-12-01T19:09:56;17.35;;;10.27;;
75071;SDS011;63651;55.728;38.022;2022-12-01T19:14:57;18.13;;;10.40;;
75071;SDS011;63651;55.728;38.022;2022-12-01T19:19:58;17.13;;;10.50;;
75071;SDS011;63651;55.728;38.022;2022-12-01T19:24:59;18.73;;;11.15;;
75071;SDS011;63651;55.728;38.022;2022-12-01T19:30:00;16.25;;;10.38;;
75071;SDS011;63651;55.728;38.022;2022-12-01T19:35:01;17.98;;;10.05;;
75071;SDS011;63651;55.728;38.022;2022-12-01T19:40:02;17.45;;;10.50;;
75071;SDS011;63651;55.728;38.022;2022-12-01T19:45:03;16.52;;;10.60;;
75071;SDS011;63651;55.728;38.022;2022-12-01T19:50:05;17.83;;;10.63;;
75071;SDS011;63651;55.728;38.022;2022-12-01T19:55:06;18.48;;;10.18;;
75071;SDS011;63651;55.728;38.022;2022-12-01T20:00:08;20.30;;;11.20;;
75071;SDS011;63651;55.728;38.022;2022-12-01T20:05:10;16.67;;;10.63;;
75071;SDS011;63651;55.728;38.022;2022-12-01T20:10:11;16.45;;;10.18;;
75071;SDS011;63651;55.728;38.022;2022-12-01T20:15:12;21.70;;;12.48;;
75071;SDS011;63651;55.728;38.022;2022-12-01T20:20:14;18.83;;;13.30;;
75071;SDS011;63651;55.728;38.022;2022-12-01T20:25:15;17.65;;;11.55;;
75071;SDS011;63651;55.728;38.022;2022-12-01T20:30:17;22.25;;;13.70;;
75071;SDS011;63651;55.728;38.022;2022-12-01T20:35:18;22.63;;;13.23;;
75071;SDS011;63651;55.728;38.022;2022-12-01T20:40:19;24.40;;;13.23;;
75071;SDS011;63651;55.728;38.022;2022-12-01T20:45:20;22.10;;;12.50;;
75071;SDS011;63651;55.728;38.022;2022-12-01T20:50:21;22.23;;;13.75;;
75071;SDS011;63651;55.728;38.022;2022-12-01T20:55:22;24.70;;;14.68;;
75071;SDS011;63651;55.728;38.022;2022-12-01T21:00:24;24.08;;;16.55;;
75071;SDS011;63651;55.728;38.022;2022-12-01T21:05:25;25.20;;;14.98;;
75071;SDS011;63651;55.728;38.022;2022-12-01T21:10:26;24.73;;;16.45;;
75071;SDS011;63651;55.728;38.022;2022-12-01T21:15:28;26.23;;;17.15;;
75071;SDS011;63651;55.728;38.022;2022-12-01T21:20:32;25.23;;;16.80;;
75071;SDS011;63651;55.728;38.022;2022-12-01T21:25:39;27.05;;;17.13;;
75071;SDS011;63651;55.728;38.022;2022-12-01T21:30:41;28.25;;;17.00;;
75071;SDS011;63651;55.728;38.022;2022-12-01T21:35:42;31.20;;;17.95;;
75071;SDS011;63651;55.728;38.022;2022-12-01T21:40:43;30.25;;;19.83;;
75071;SDS011;63651;55.728;38.022;2022-12-01T21:45:48;27.10;;;18.80;;
75071;SDS011;63651;55.728;38.022;2022-12-01T21:51:00;31.35;;;20.08;;
75071;SDS011;63651;55.728;38.022;2022-12-01T21:56:09;33.50;;;22.00;;
75071;SDS011;63651;55.728;38.022;2022-12-01T22:01:21;33.33;;;21.30;;
75071;SDS011;63651;55.728;38.022;2022-12-01T22:06:31;32.42;;;20.58;;
75071;SDS011;63651;55.728;38.022;2022-12-01T22:11:39;34.40;;;22.17;;
75071;SDS011;63651;55.728;38.022;2022-12-01T22:42:53;32.53;;;20.58;;
75071;SDS011;63651;55.728;38.022;2022-12-01T22:47:55;33.05;;;20.42;;
75071;SDS011;63651;55.728;38.022;2022-12-01T22:53:05;30.50;;;20.00;;
75071;SDS011;63651;55.728;38.022;2022-12-01T23:03:23;31.92;;;20.05;;
75071;SDS011;63651;55.728;38.022;2022-12-01T23:08:24;30.88;;;19.17;;
75071;SDS011;63651;55.728;38.022;2022-12-01T23:13:25;28.20;;;17.80;;
75071;SDS011;63651;55.728;38.022;2022-12-01T23:18:29;24.63;;;16.95;;
75071;SDS011;63651;55.728;38.022;2022-12-01T23:23:32;28.20;;;17.30;;
75071;SDS011;63651;55.728;38.022;2022-12-01T23:28:36;26.38;;;17.38;;
75071;SDS011;63651;55.728;38.022;2022-12-01T23:33:40;29.83;;;17.65;;
75071;SDS011;63651;55.728;38.022;2022-12-01T23:38:42;26.95;;;17.00;;
75071;SDS011;63651;55.728;38.022;2022-12-01T23:43:46;26.55;;;17.02;;
75071;SDS011;63651;55.728;38.022;2022-12-01T23:48:48;25.92;;;17.15;;
75071;SDS011;63651;55.728;38.022;2022-12-01T23:53:50;24.80;;;16.08;;
75071;SDS011;63651;55.728;38.022;2022-12-01T23:58:53;27.92;;;16.80;;
